Time;durP1;ratioP1;P1;durP2;ratioP2;P2;SDS_P1;SDS_P2;PMS_P1;PMS_P2;Temp;Humidity;BMP_temperature;BMP_pressure;BME280_temperature;BME280_humidity;BME280_pressure;Samples;Min_cycle;Max_cycle;Signal;HPM_P1;HPM_P2
2021/10/11 00:01:48;;;;;;;;;;;11.20;99.90;;;;;;5109746;28;20029;-71
2021/10/11 00:04:15;;;;;;;;;;;11.20;99.90;;;;;;5110229;28;20347;-69
2021/10/11 00:06:42;;;;;;;;;;;11.30;99.90;;;;;;5110234;28;19908;-68
2021/10/11 00:09:09;;;;;;;;;;;11.30;99.90;;;;;;5109623;28;19953;-68
2021/10/11 00:11:35;;;;;;;;;;;11.30;99.90;;;;;;5109309;28;19971;-69
2021/10/11 00:14:02;;;;;;;;;;;11.40;99.90;;;;;;5109248;28;19916;-69
2021/10/11 00:16:29;;;;;;;;;;;11.50;99.90;;;;;;5109691;28;19908;-69
2021/10/11 00:18:57;;;;;;;;;;;11.50;99.90;;;;;;5109500;28;19919;-69
2021/10/11 00:21:24;;;;;;;;;;;11.50;99.90;;;;;;5108023;28;19936;-69
2021/10/11 00:23:50;;;;;;;;;;;11.50;99.90;;;;;;5109179;28;19912;-68
2021/10/11 00:26:17;;;;;;;;;;;11.60;99.90;;;;;;5109418;28;20354;-69
2021/10/11 00:28:43;;;;;;;;;;;11.70;99.90;;;;;;5109147;28;19919;-69
2021/10/11 00:31:10;;;;;;;;;;;11.70;99.90;;;;;;5109245;28;19931;-69
2021/10/11 00:33:37;;;;;;;;;;;11.70;99.90;;;;;;5119042;27;19972;-68
2021/10/11 00:36:04;;;;;;;;;;;11.70;99.90;;;;;;5129533;27;19914;-68
2021/10/11 00:38:31;;;;;;;;;;;11.70;99.90;;;;;;5130520;28;20369;-68
2021/10/11 00:40:58;;;;;;;;;;;11.70;99.90;;;;;;5129303;27;19912;-69
2021/10/11 00:43:24;;;;;;;;;;;11.70;99.90;;;;;;5129197;28;20362;-69
2021/10/11 00:45:51;;;;;;;;;;;11.70;99.90;;;;;;5117433;28;20319;-69
2021/10/11 00:48:17;;;;;;;;;;;11.70;99.90;;;;;;5115390;28;19908;-68
2021/10/11 00:50:44;;;;;;;;;;;11.70;99.90;;;;;;5115165;28;19915;-69
2021/10/11 00:53:11;;;;;;;;;;;11.60;99.90;;;;;;5115386;28;19920;-69
2021/10/11 00:55:38;;;;;;;;;;;11.60;99.90;;;;;;5114958;28;20231;-68
2021/10/11 00:58:05;;;;;;;;;;;11.60;99.90;;;;;;5115316;28;19932;-69
2021/10/11 01:00:31;;;;;;;;;;;11.70;99.90;;;;;;5115743;28;19969;-69
2021/10/11 01:02:58;;;;;;;;;;;11.70;99.90;;;;;;5116140;28;19930;-68
2021/10/11 01:05:25;;;;;;;;;;;11.70;99.90;;;;;;5116752;28;19908;-68
2021/10/11 01:07:52;;;;;;;;;;;11.70;99.90;;;;;;5114875;28;19930;-69
2021/10/11 01:10:19;;;;;;;;;;;11.70;99.90;;;;;;5113593;28;19919;-69
2021/10/11 01:12:46;;;;;;;;;;;11.80;99.90;;;;;;5114727;28;19912;-73
2021/10/11 01:15:13;;;;;;;;;;;11.80;99.90;;;;;;5115205;28;19999;-69
2021/10/11 01:17:39;;;;;;;;;;;11.90;99.90;;;;;;5114856;28;19914;-69
2021/10/11 01:20:06;;;;;;;;;;;11.90;99.90;;;;;;5115272;28;19991;-69
2021/10/11 01:22:40;;;;;;;;;;;11.90;99.90;;;;;;5115238;28;19908;-69
2021/10/11 01:25:07;;;;;;;;;;;12.00;99.90;;;;;;5115273;28;19918;-69
2021/10/11 01:27:34;;;;;;;;;;;12.00;99.90;;;;;;5114843;28;19907;-69
2021/10/11 01:30:02;;;;;;;;;;;12.00;99.90;;;;;;5114752;28;20393;-68
2021/10/11 01:32:29;;;;;;;;;;;12.00;99.90;;;;;;5114882;28;20479;-69
2021/10/11 01:34:56;;;;;;;;;;;11.90;99.90;;;;;;5115357;28;19911;-69
2021/10/11 01:37:23;;;;;;;;;;;12.00;99.90;;;;;;5115602;28;19908;-71
2021/10/11 01:39:50;;;;;;;;;;;12.10;99.90;;;;;;5114826;28;19916;-69
2021/10/11 01:42:16;;;;;;;;;;;12.00;99.90;;;;;;5114925;28;19908;-69
2021/10/11 01:44:43;;;;;;;;;;;12.00;99.90;;;;;;5114460;28;19939;-68
2021/10/11 01:47:10;;;;;;;;;;;12.00;99.90;;;;;;5115253;28;19908;-69
2021/10/11 01:49:36;;;;;;;;;;;11.90;99.90;;;;;;5114637;28;19908;-73
2021/10/11 01:52:03;;;;;;;;;;;12.00;99.90;;;;;;5114312;28;19912;-68
2021/10/11 01:54:29;;;;;;;;;;;12.10;99.90;;;;;;5112541;28;19923;-68
2021/10/11 01:56:56;;;;;;;;;;;12.20;99.90;;;;;;5111881;28;19930;-70
2021/10/11 01:59:23;;;;;;;;;;;12.10;99.90;;;;;;5113907;28;19951;-68
2021/10/11 02:01:49;;;;;;;;;;;12.10;99.90;;;;;;5113782;28;20358;-69
2021/10/11 02:04:16;;;;;;;;;;;12.20;99.90;;;;;;5113991;28;19908;-69
2021/10/11 02:06:43;;;;;;;;;;;12.30;99.90;;;;;;5114175;28;20324;-70
2021/10/11 02:09:10;;;;;;;;;;;12.30;99.90;;;;;;5114101;28;19914;-69
2021/10/11 02:11:37;;;;;;;;;;;12.10;99.90;;;;;;5113687;28;19907;-69
2021/10/11 02:14:04;;;;;;;;;;;12.20;99.90;;;;;;5113759;28;20389;-69
2021/10/11 02:16:31;;;;;;;;;;;12.20;99.90;;;;;;5112895;28;20014;-69
2021/10/11 02:18:57;;;;;;;;;;;12.20;99.90;;;;;;5113671;28;20020;-68
2021/10/11 02:21:27;;;;;;;;;;;12.30;99.90;;;;;;5113731;28;19908;-69
2021/10/11 02:23:54;;;;;;;;;;;12.30;99.90;;;;;;5113326;28;19907;-68
2021/10/11 02:26:22;;;;;;;;;;;12.40;99.90;;;;;;5113950;28;19911;-69
2021/10/11 02:28:49;;;;;;;;;;;12.30;99.90;;;;;;5113497;28;19908;-71
2021/10/11 02:31:16;;;;;;;;;;;12.40;99.90;;;;;;5113954;28;19914;-67
2021/10/11 02:33:42;;;;;;;;;;;12.30;99.90;;;;;;5113355;28;20274;-67
2021/10/11 02:36:10;;;;;;;;;;;12.40;99.90;;;;;;5114135;28;19933;-70
2021/10/11 02:38:37;;;;;;;;;;;12.60;99.90;;;;;;5114299;28;19908;-69
2021/10/11 02:41:04;;;;;;;;;;;12.70;99.90;;;;;;5115475;28;19979;-70
2021/10/11 02:43:30;;;;;;;;;;;12.70;99.90;;;;;;5115027;28;20507;-69
2021/10/11 02:45:57;;;;;;;;;;;12.70;99.90;;;;;;5114171;28;20010;-70
2021/10/11 02:48:24;;;;;;;;;;;12.70;99.90;;;;;;5114109;28;19912;-69
2021/10/11 02:50:51;;;;;;;;;;;12.70;99.90;;;;;;5115089;28;19965;-71
2021/10/11 02:53:17;;;;;;;;;;;12.80;99.90;;;;;;5113970;28;19934;-68
2021/10/11 02:55:44;;;;;;;;;;;12.80;99.90;;;;;;5113416;28;20388;-69
2021/10/11 02:58:10;;;;;;;;;;;12.90;99.90;;;;;;5113995;28;20322;-73
2021/10/11 03:00:37;;;;;;;;;;;13.00;99.90;;;;;;5113490;28;19999;-72
2021/10/11 03:03:04;;;;;;;;;;;13.00;99.90;;;;;;5104892;28;20002;-69
2021/10/11 03:05:30;;;;;;;;;;;13.10;99.90;;;;;;5092330;28;19912;-70
2021/10/11 03:07:57;;;;;;;;;;;13.00;99.90;;;;;;5092692;28;20294;-70
2021/10/11 03:10:24;;;;;;;;;;;13.00;99.90;;;;;;5092248;28;20363;-69
2021/10/11 03:12:50;;;;;;;;;;;13.00;99.90;;;;;;5093080;28;20494;-69
2021/10/11 03:15:17;;;;;;;;;;;12.90;99.90;;;;;;5093106;28;19908;-70
2021/10/11 03:17:44;;;;;;;;;;;13.00;99.90;;;;;;5092831;28;19971;-70
2021/10/11 03:20:11;;;;;;;;;;;12.90;99.90;;;;;;5093041;28;19912;-69
2021/10/11 03:22:38;;;;;;;;;;;12.90;99.90;;;;;;5092790;28;19919;-69
2021/10/11 03:25:05;;;;;;;;;;;12.90;99.90;;;;;;5091929;28;20010;-69
2021/10/11 03:27:31;;;;;;;;;;;12.90;99.90;;;;;;5092574;28;20050;-71
2021/10/11 03:29:58;;;;;;;;;;;12.80;99.90;;;;;;5088834;28;19947;-70
2021/10/11 03:32:24;;;;;;;;;;;12.80;99.90;;;;;;5091073;28;19908;-73
2021/10/11 03:34:51;;;;;;;;;;;12.80;99.90;;;;;;5097572;28;19965;-73
2021/10/11 03:37:18;;;;;;;;;;;12.80;99.90;;;;;;5112569;28;19908;-70
2021/10/11 03:39:44;;;;;;;;;;;12.80;99.90;;;;;;5113356;28;19908;-70
2021/10/11 03:42:11;;;;;;;;;;;12.90;99.90;;;;;;5112717;28;20390;-69
2021/10/11 03:44:38;;;;;;;;;;;13.00;99.90;;;;;;5112444;28;19912;-68
2021/10/11 03:47:04;;;;;;;;;;;13.00;99.90;;;;;;5112863;28;20270;-69
2021/10/11 03:49:34;;;;;;;;;;;12.80;99.90;;;;;;5111597;28;20254;-70
2021/10/11 03:52:00;;;;;;;;;;;12.90;99.90;;;;;;5112889;28;20091;-71
2021/10/11 03:54:27;;;;;;;;;;;12.80;99.90;;;;;;5112196;28;19961;-71
2021/10/11 03:56:55;;;;;;;;;;;12.90;99.90;;;;;;5112030;28;19916;-68
2021/10/11 03:59:26;;;;;;;;;;;12.80;99.90;;;;;;5113056;28;19908;-68
2021/10/11 04:01:53;;;;;;;;;;;12.60;99.90;;;;;;5112374;28;19912;-68
2021/10/11 04:04:21;;;;;;;;;;;12.50;99.90;;;;;;5112643;28;19908;-69
2021/10/11 04:06:49;;;;;;;;;;;12.40;99.90;;;;;;5113212;28;19955;-69
2021/10/11 04:09:16;;;;;;;;;;;12.50;99.90;;;;;;5112707;28;20349;-71
2021/10/11 04:11:43;;;;;;;;;;;12.50;99.90;;;;;;5112441;28;19908;-70
2021/10/11 04:14:10;;;;;;;;;;;12.60;99.90;;;;;;5112248;28;20064;-73
2021/10/11 04:16:37;;;;;;;;;;;12.70;99.90;;;;;;5113613;28;19908;-69
2021/10/11 04:19:04;;;;;;;;;;;12.80;99.90;;;;;;5116706;28;19953;-68
2021/10/11 04:21:30;;;;;;;;;;;12.80;99.90;;;;;;5116365;28;20420;-70
2021/10/11 04:23:58;;;;;;;;;;;12.90;99.90;;;;;;5116239;28;20347;-69
2021/10/11 04:26:25;;;;;;;;;;;12.80;99.90;;;;;;5116449;28;19911;-69
2021/10/11 04:28:51;;;;;;;;;;;12.80;99.90;;;;;;5116144;28;19912;-72
2021/10/11 04:31:18;;;;;;;;;;;12.80;99.90;;;;;;5116610;28;19908;-72
2021/10/11 04:33:45;;;;;;;;;;;12.80;99.90;;;;;;5115963;28;19920;-70
2021/10/11 04:36:11;;;;;;;;;;;12.80;99.90;;;;;;5116252;28;19912;-76
2021/10/11 04:38:38;;;;;;;;;;;12.90;99.90;;;;;;5115577;28;20255;-75
2021/10/11 04:41:06;;;;;;;;;;;12.90;99.90;;;;;;5116196;28;19908;-75
2021/10/11 04:43:33;;;;;;;;;;;12.80;99.90;;;;;;5115975;28;19943;-74
2021/10/11 04:46:00;;;;;;;;;;;12.80;99.90;;;;;;5115719;28;19919;-71
2021/10/11 04:48:26;;;;;;;;;;;12.80;99.90;;;;;;5115888;28;19912;-74
2021/10/11 04:50:53;;;;;;;;;;;12.90;99.90;;;;;;5115927;28;19907;-70
2021/10/11 04:53:20;;;;;;;;;;;12.90;99.90;;;;;;5115671;28;19920;-71
2021/10/11 04:55:46;;;;;;;;;;;12.90;99.90;;;;;;5115856;27;19908;-74
2021/10/11 04:58:13;;;;;;;;;;;13.00;99.90;;;;;;5115937;28;19919;-70
2021/10/11 05:00:40;;;;;;;;;;;13.00;99.90;;;;;;5115939;28;19908;-70
2021/10/11 05:03:07;;;;;;;;;;;12.90;99.90;;;;;;5114330;28;19935;-70
2021/10/11 05:05:36;;;;;;;;;;;12.90;99.90;;;;;;5115594;27;20427;-73
2021/10/11 05:08:03;;;;;;;;;;;12.90;99.90;;;;;;5116238;28;19912;-73
2021/10/11 05:10:30;;;;;;;;;;;13.00;99.90;;;;;;5115924;28;19907;-70
2021/10/11 05:12:57;;;;;;;;;;;12.90;99.90;;;;;;5115151;27;19965;-73
2021/10/11 05:15:24;;;;;;;;;;;12.90;99.90;;;;;;5115624;28;19909;-70
2021/10/11 05:17:51;;;;;;;;;;;12.90;99.90;;;;;;5115442;28;19911;-72
2021/10/11 05:20:17;;;;;;;;;;;13.00;99.90;;;;;;5115184;28;19977;-75
2021/10/11 05:22:44;;;;;;;;;;;13.00;99.90;;;;;;5113813;28;19908;-70
2021/10/11 05:25:11;;;;;;;;;;;13.10;99.90;;;;;;5115099;28;19911;-71
2021/10/11 05:27:39;;;;;;;;;;;13.00;99.90;;;;;;5115300;28;20366;-72
2021/10/11 05:30:06;;;;;;;;;;;13.00;99.90;;;;;;5115118;28;20266;-69
2021/10/11 05:32:33;;;;;;;;;;;13.00;99.90;;;;;;5115025;28;19908;-71
2021/10/11 05:35:00;;;;;;;;;;;13.00;99.90;;;;;;5114985;28;19919;-69
2021/10/11 05:37:31;;;;;;;;;;;12.90;99.90;;;;;;5115329;28;19915;-70
2021/10/11 05:39:57;;;;;;;;;;;12.90;99.90;;;;;;5114701;28;19908;-72
2021/10/11 05:42:24;;;;;;;;;;;13.00;99.90;;;;;;5115201;28;19923;-69
2021/10/11 05:44:51;;;;;;;;;;;13.10;99.90;;;;;;5114570;28;20394;-69
2021/10/11 05:47:18;;;;;;;;;;;13.00;99.90;;;;;;5114926;28;20333;-69
2021/10/11 05:49:44;;;;;;;;;;;13.00;99.90;;;;;;5114114;28;19915;-72
2021/10/11 05:52:11;;;;;;;;;;;13.00;99.90;;;;;;5112419;28;19912;-69
2021/10/11 05:54:38;;;;;;;;;;;12.90;99.90;;;;;;5112747;28;19964;-69
2021/10/11 05:57:04;;;;;;;;;;;12.90;99.90;;;;;;5114104;28;19972;-70
2021/10/11 05:59:31;;;;;;;;;;;12.80;99.90;;;;;;5112511;28;20434;-69
2021/10/11 06:01:57;;;;;;;;;;;12.90;99.90;;;;;;5112164;28;19918;-75
2021/10/11 06:04:24;;;;;;;;;;;12.90;99.90;;;;;;5111985;28;19922;-68
2021/10/11 06:06:54;;;;;;;;;;;13.00;99.90;;;;;;5112055;28;20671;-69
2021/10/11 06:09:20;;;;;;;;;;;13.00;99.90;;;;;;5111811;28;19918;-69
2021/10/11 06:11:47;;;;;;;;;;;13.00;99.90;;;;;;5111653;28;19907;-70
2021/10/11 06:14:14;;;;;;;;;;;13.00;99.90;;;;;;5112222;28;20388;-69
2021/10/11 06:16:40;;;;;;;;;;;13.00;99.90;;;;;;5110480;28;19980;-70
2021/10/11 06:19:07;;;;;;;;;;;12.90;99.90;;;;;;5111573;28;19943;-69
2021/10/11 06:21:35;;;;;;;;;;;12.80;99.90;;;;;;5111604;28;20389;-68
2021/10/11 06:24:06;;;;;;;;;;;12.70;99.90;;;;;;5111809;28;20306;-69
2021/10/11 06:26:33;;;;;;;;;;;12.70;99.90;;;;;;5111791;28;19915;-71
2021/10/11 06:29:00;;;;;;;;;;;12.60;99.90;;;;;;5111773;28;19994;-69
2021/10/11 06:31:28;;;;;;;;;;;12.60;99.90;;;;;;5110834;28;19908;-74
2021/10/11 06:33:54;;;;;;;;;;;12.60;99.90;;;;;;5112338;28;20050;-73
2021/10/11 06:36:21;;;;;;;;;;;12.50;99.90;;;;;;5113533;28;19957;-72
2021/10/11 06:38:48;;;;;;;;;;;12.40;99.90;;;;;;5114140;28;19908;-72
2021/10/11 06:41:14;;;;;;;;;;;12.50;99.90;;;;;;5111429;28;19908;-69
2021/10/11 06:43:41;;;;;;;;;;;12.40;99.90;;;;;;5110078;28;19919;-71
2021/10/11 06:46:08;;;;;;;;;;;12.40;99.90;;;;;;5111391;28;19908;-71
2021/10/11 06:48:34;;;;;;;;;;;12.40;99.90;;;;;;5111203;28;20374;-71
2021/10/11 06:51:01;;;;;;;;;;;12.40;99.90;;;;;;5111164;28;20374;-70
2021/10/11 06:53:27;;;;;;;;;;;12.60;99.90;;;;;;5110906;28;19912;-69
2021/10/11 06:55:55;;;;;;;;;;;12.70;99.90;;;;;;5110970;28;19907;-70
2021/10/11 06:58:21;;;;;;;;;;;12.60;99.90;;;;;;5109180;28;19920;-72
2021/10/11 07:00:48;;;;;;;;;;;12.70;99.90;;;;;;5110892;28;19914;-71
2021/10/11 07:03:15;;;;;;;;;;;12.80;99.90;;;;;;5111102;28;19954;-72
2021/10/11 07:05:42;;;;;;;;;;;12.80;99.90;;;;;;5111642;28;19908;-71
2021/10/11 07:10:22;;;;;;;;;;;12.90;99.90;;;;;;5107421;27;19920;-74
2021/10/11 07:12:49;;;;;;;;;;;12.90;99.90;;;;;;5108310;28;20030;-70
2021/10/11 07:15:16;;;;;;;;;;;13.00;99.90;;;;;;5108624;28;19915;-69
2021/10/11 07:17:42;;;;;;;;;;;13.00;99.90;;;;;;5141986;27;20038;-69
2021/10/11 07:20:09;;;;;;;;;;;12.90;99.90;;;;;;5108699;28;19999;-70
2021/10/11 07:22:37;;;;;;;;;;;12.90;99.90;;;;;;5108421;28;20443;-70
2021/10/11 07:25:07;;;;;;;;;;;12.90;99.90;;;;;;5109145;27;20338;-69
2021/10/11 07:27:35;;;;;;;;;;;12.90;99.90;;;;;;5108899;28;19990;-71
2021/10/11 07:30:03;;;;;;;;;;;12.80;99.90;;;;;;5110111;28;20422;-70
2021/10/11 07:32:30;;;;;;;;;;;12.80;99.90;;;;;;5108008;28;19908;-70
2021/10/11 07:34:56;;;;;;;;;;;12.80;99.90;;;;;;5107908;28;19911;-70
2021/10/11 07:37:23;;;;;;;;;;;12.90;99.90;;;;;;5108038;28;20419;-70
2021/10/11 07:39:50;;;;;;;;;;;12.90;99.90;;;;;;5109136;28;20257;-70
2021/10/11 07:42:17;;;;;;;;;;;12.80;99.90;;;;;;5107433;28;20384;-73
2021/10/11 07:44:44;;;;;;;;;;;12.70;99.90;;;;;;5108565;28;19937;-75
2021/10/11 07:47:10;;;;;;;;;;;12.80;99.90;;;;;;5111886;28;19915;-76
2021/10/11 07:49:37;;;;;;;;;;;12.80;99.90;;;;;;5129369;27;19915;-72
2021/10/11 07:52:04;;;;;;;;;;;12.80;99.90;;;;;;5127386;27;19907;-72
2021/10/11 07:54:30;;;;;;;;;;;12.90;99.90;;;;;;5128581;28;20319;-69
2021/10/11 07:56:58;;;;;;;;;;;12.80;99.90;;;;;;5128139;27;19918;-72
2021/10/11 07:59:27;;;;;;;;;;;12.80;99.90;;;;;;5126864;27;19911;-72
2021/10/11 08:01:54;;;;;;;;;;;12.70;99.90;;;;;;5125971;28;19957;-75
2021/10/11 08:04:20;;;;;;;;;;;12.60;99.90;;;;;;5125681;27;19911;-69
2021/10/11 08:06:47;;;;;;;;;;;12.70;99.90;;;;;;5127532;27;20006;-70
2021/10/11 08:09:14;;;;;;;;;;;12.70;99.90;;;;;;5127206;27;20338;-73
2021/10/11 08:11:43;;;;;;;;;;;12.70;99.90;;;;;;5127840;27;19907;-70
2021/10/11 08:14:10;;;;;;;;;;;12.70;99.90;;;;;;5129108;27;19907;-72
2021/10/11 08:16:38;;;;;;;;;;;12.70;99.90;;;;;;5129652;27;20022;-72
2021/10/11 08:19:04;;;;;;;;;;;12.70;99.90;;;;;;5129960;27;20003;-74
2021/10/11 08:21:31;;;;;;;;;;;12.70;99.90;;;;;;5116691;27;19915;-73
2021/10/11 08:23:59;;;;;;;;;;;12.70;99.90;;;;;;5115423;28;19955;-75
2021/10/11 08:26:27;;;;;;;;;;;12.70;99.90;;;;;;5116220;28;20358;-70
2021/10/11 08:28:54;;;;;;;;;;;12.70;99.90;;;;;;5115425;28;19964;-69
2021/10/11 08:31:20;;;;;;;;;;;12.70;99.90;;;;;;5115312;28;19991;-69
2021/10/11 08:33:47;;;;;;;;;;;12.70;99.90;;;;;;5115221;28;20290;-69
2021/10/11 08:36:14;;;;;;;;;;;12.80;99.90;;;;;;5115965;28;19914;-69
2021/10/11 08:38:41;;;;;;;;;;;12.80;99.90;;;;;;5115445;28;19955;-69
2021/10/11 08:41:08;;;;;;;;;;;12.80;99.90;;;;;;5115686;28;19915;-74
2021/10/11 08:43:35;;;;;;;;;;;12.80;99.90;;;;;;5115434;28;20307;-73
2021/10/11 08:46:03;;;;;;;;;;;12.80;99.90;;;;;;5115298;28;19911;-71
2021/10/11 08:48:30;;;;;;;;;;;12.70;99.90;;;;;;5114185;28;20060;-71
2021/10/11 08:50:57;;;;;;;;;;;12.80;99.90;;;;;;5115699;28;19962;-69
2021/10/11 08:53:24;;;;;;;;;;;12.70;99.90;;;;;;5115911;28;19960;-70
2021/10/11 08:55:51;;;;;;;;;;;12.70;99.90;;;;;;5115302;28;20368;-69
2021/10/11 08:58:17;;;;;;;;;;;12.80;99.90;;;;;;5115470;28;19907;-71
2021/10/11 09:00:44;;;;;;;;;;;12.90;99.90;;;;;;5115155;28;19908;-73
2021/10/11 09:03:16;;;;;;;;;;;12.70;99.90;;;;;;5114725;28;19915;-72
2021/10/11 09:05:45;;;;;;;;;;;12.50;99.90;;;;;;5115319;28;19930;-72
2021/10/11 09:08:18;;;;;;;;;;;12.60;99.90;;;;;;5116174;28;19912;-70
2021/10/11 09:11:04;;;;;;;;;;;12.70;99.90;;;;;;5115472;28;19908;-70
2021/10/11 09:13:44;;;;;;;;;;;12.70;99.90;;;;;;5114802;28;19908;-70
2021/10/11 09:16:41;;;;;;;;;;;12.80;99.90;;;;;;5115790;28;19915;-71
2021/10/11 09:19:13;;;;;;;;;;;12.90;99.90;;;;;;5114696;28;19915;-75
2021/10/11 09:21:40;;;;;;;;;;;12.90;99.90;;;;;;5114870;28;20382;-74
2021/10/11 09:24:08;;;;;;;;;;;12.80;99.90;;;;;;5115081;28;20390;-71
2021/10/11 09:27:01;;;;;;;;;;;12.80;99.90;;;;;;5114916;28;19914;-72
2021/10/11 09:29:29;;;;;;;;;;;12.80;99.90;;;;;;5071854;28;19924;-70
2021/10/11 09:31:57;;;;;;;;;;;12.80;99.90;;;;;;5073093;28;19948;-73
2021/10/11 09:34:32;;;;;;;;;;;12.90;99.90;;;;;;5074091;28;20299;-71
2021/10/11 09:37:00;;;;;;;;;;;12.80;99.90;;;;;;5073849;28;20359;-70
2021/10/11 09:39:28;;;;;;;;;;;12.90;99.90;;;;;;5073715;28;19909;-70
2021/10/11 09:41:55;;;;;;;;;;;13.00;99.90;;;;;;5106292;28;20006;-72
2021/10/11 09:44:23;;;;;;;;;;;13.10;99.90;;;;;;5074211;28;19912;-70
2021/10/11 09:46:57;;;;;;;;;;;13.10;99.90;;;;;;5074053;28;20264;-75
2021/10/11 09:49:25;;;;;;;;;;;13.20;99.90;;;;;;5073735;28;19917;-72
2021/10/11 09:51:53;;;;;;;;;;;13.20;99.90;;;;;;5106119;28;20429;-71
2021/10/11 09:54:20;;;;;;;;;;;13.30;99.90;;;;;;5073787;28;20312;-73
2021/10/11 09:56:47;;;;;;;;;;;13.30;99.90;;;;;;5074725;28;19908;-73
2021/10/11 09:59:16;;;;;;;;;;;13.40;99.90;;;;;;5073871;28;19916;-74
2021/10/11 10:01:43;;;;;;;;;;;13.50;99.90;;;;;;5073831;28;20424;-73
2021/10/11 10:04:36;;;;;;;;;;;13.50;99.90;;;;;;5073617;28;20070;-74
2021/10/11 10:07:05;;;;;;;;;;;13.50;99.90;;;;;;5072409;28;19909;-73
2021/10/11 10:09:33;;;;;;;;;;;13.50;99.90;;;;;;5072382;28;19924;-73
2021/10/11 10:12:04;;;;;;;;;;;13.60;99.90;;;;;;5073314;28;20333;-75
2021/10/11 10:14:33;;;;;;;;;;;13.50;99.90;;;;;;5073438;28;20424;-73
2021/10/11 10:17:00;;;;;;;;;;;13.60;99.90;;;;;;5073356;28;19908;-72
2021/10/11 10:19:39;;;;;;;;;;;13.60;99.90;;;;;;5073212;28;19947;-69
2021/10/11 10:22:13;;;;;;;;;;;13.60;99.90;;;;;;5072896;28;19908;-69
2021/10/11 10:24:40;;;;;;;;;;;13.60;99.90;;;;;;5072730;28;20436;-69
2021/10/11 10:27:08;;;;;;;;;;;13.60;99.90;;;;;;5072891;28;19909;-72
2021/10/11 10:29:41;;;;;;;;;;;13.70;99.90;;;;;;5072501;28;19916;-70
2021/10/11 10:32:08;;;;;;;;;;;13.70;99.90;;;;;;5072821;28;19908;-69
2021/10/11 10:34:35;;;;;;;;;;;13.70;99.90;;;;;;5072818;28;19909;-71
2021/10/11 10:37:06;;;;;;;;;;;13.70;99.90;;;;;;5072548;28;19959;-68
2021/10/11 10:39:40;;;;;;;;;;;13.70;99.90;;;;;;5071676;28;19909;-71
2021/10/11 10:42:08;;;;;;;;;;;13.60;99.90;;;;;;5073362;28;19916;-70
2021/10/11 10:44:42;;;;;;;;;;;13.70;99.90;;;;;;5073742;28;19909;-73
2021/10/11 10:47:09;;;;;;;;;;;13.80;99.90;;;;;;5072977;28;19912;-72
2021/10/11 10:49:40;;;;;;;;;;;13.80;99.90;;;;;;5072510;28;19916;-72
2021/10/11 10:52:17;;;;;;;;;;;13.80;99.90;;;;;;5072539;28;19975;-72
2021/10/11 10:54:47;;;;;;;;;;;13.80;99.90;;;;;;5072181;28;19908;-72
2021/10/11 10:57:20;;;;;;;;;;;13.90;99.90;;;;;;5072442;28;19932;-72
2021/10/11 10:59:53;;;;;;;;;;;13.90;99.90;;;;;;5072362;28;19909;-73
2021/10/11 11:02:20;;;;;;;;;;;13.90;99.90;;;;;;5072626;28;20006;-72
2021/10/11 11:05:04;;;;;;;;;;;14.00;99.90;;;;;;5072189;28;19909;-71
2021/10/11 11:07:32;;;;;;;;;;;14.00;99.90;;;;;;5072007;28;19948;-72
2021/10/11 11:10:05;;;;;;;;;;;14.00;99.90;;;;;;5071773;28;19929;-69
2021/10/11 11:12:33;;;;;;;;;;;14.00;99.90;;;;;;5072282;28;19912;-69
2021/10/11 11:15:01;;;;;;;;;;;13.90;99.90;;;;;;5072338;28;19934;-72
2021/10/11 11:17:29;;;;;;;;;;;13.90;99.90;;;;;;5072267;28;19947;-72
2021/10/11 11:19:56;;;;;;;;;;;13.90;99.90;;;;;;5072150;28;20391;-68
2021/10/11 11:22:33;;;;;;;;;;;14.00;99.90;;;;;;5072182;28;19913;-69
2021/10/11 11:25:01;;;;;;;;;;;14.00;99.90;;;;;;5071734;28;19909;-68
2021/10/11 11:27:29;;;;;;;;;;;13.90;99.90;;;;;;5072182;28;20003;-71
2021/10/11 11:29:56;;;;;;;;;;;13.90;99.90;;;;;;5071933;28;19971;-68
2021/10/11 11:32:23;;;;;;;;;;;14.00;99.90;;;;;;5071955;28;19961;-69
2021/10/11 11:34:50;;;;;;;;;;;14.00;99.90;;;;;;5071952;28;20371;-70
2021/10/11 11:37:17;;;;;;;;;;;14.00;99.90;;;;;;5071729;28;20266;-72
2021/10/11 11:39:44;;;;;;;;;;;14.10;99.90;;;;;;5071230;28;20314;-71
2021/10/11 11:42:10;;;;;;;;;;;14.00;99.90;;;;;;5072002;28;19909;-73
2021/10/11 11:44:37;;;;;;;;;;;14.00;99.90;;;;;;5071997;28;19913;-69
2021/10/11 11:47:06;;;;;;;;;;;14.00;99.90;;;;;;5070903;28;19908;-71
2021/10/11 11:49:36;;;;;;;;;;;14.00;99.90;;;;;;5071607;28;19917;-70
2021/10/11 11:52:04;;;;;;;;;;;14.00;99.90;;;;;;5071852;28;19909;-69
2021/10/11 11:54:31;;;;;;;;;;;14.00;99.90;;;;;;5071438;28;19962;-72
2021/10/11 11:56:57;;;;;;;;;;;14.00;99.90;;;;;;5075238;28;20119;-73
2021/10/11 11:59:25;;;;;;;;;;;14.00;99.90;;;;;;5075604;28;20339;-72
2021/10/11 12:01:52;;;;;;;;;;;14.10;99.90;;;;;;5075460;28;19932;-69
2021/10/11 12:04:19;;;;;;;;;;;14.00;99.90;;;;;;5075307;28;19909;-69
2021/10/11 12:06:46;;;;;;;;;;;14.10;99.90;;;;;;5075360;28;19969;-69
2021/10/11 12:09:12;;;;;;;;;;;14.10;99.90;;;;;;5074414;28;20306;-68
2021/10/11 12:11:39;;;;;;;;;;;14.10;99.90;;;;;;5073704;28;19947;-69
2021/10/11 12:14:06;;;;;;;;;;;14.10;99.90;;;;;;5075482;28;19908;-71
2021/10/11 12:16:33;;;;;;;;;;;14.10;99.90;;;;;;5074994;28;19946;-68
2021/10/11 12:19:01;;;;;;;;;;;14.10;99.90;;;;;;5122633;27;20428;-70
2021/10/11 12:21:32;;;;;;;;;;;14.10;99.90;;;;;;5095978;28;19916;-69
2021/10/11 12:24:00;;;;;;;;;;;14.10;99.90;;;;;;5109281;28;19908;-70
2021/10/11 12:26:28;;;;;;;;;;;14.10;99.90;;;;;;5115689;28;19977;-69
2021/10/11 12:28:56;;;;;;;;;;;14.10;99.90;;;;;;5115542;28;19958;-70
2021/10/11 12:31:28;;;;;;;;;;;14.10;99.90;;;;;;5115459;28;19907;-68
2021/10/11 12:34:02;;;;;;;;;;;14.00;99.90;;;;;;5115658;28;19995;-71
2021/10/11 12:36:29;;;;;;;;;;;13.80;99.90;;;;;;5115371;28;19914;-68
2021/10/11 12:38:56;;;;;;;;;;;13.60;99.90;;;;;;5115574;28;19933;-72
2021/10/11 12:41:22;;;;;;;;;;;13.50;99.90;;;;;;5115345;28;20362;-69
2021/10/11 12:43:53;;;;;;;;;;;13.40;99.90;;;;;;5113957;28;20289;-70
2021/10/11 12:46:20;;;;;;;;;;;13.30;99.90;;;;;;5115326;28;20271;-73
2021/10/11 12:48:51;;;;;;;;;;;13.30;99.90;;;;;;5115323;28;19923;-70
2021/10/11 12:51:30;;;;;;;;;;;13.20;99.90;;;;;;5114912;28;19907;-69
2021/10/11 12:54:07;;;;;;;;;;;13.20;99.90;;;;;;5115243;28;19907;-68
2021/10/11 12:56:35;;;;;;;;;;;13.30;99.90;;;;;;5114866;28;20340;-70
2021/10/11 12:59:03;;;;;;;;;;;13.40;99.90;;;;;;5115078;28;19933;-71
2021/10/11 13:01:30;;;;;;;;;;;13.40;99.90;;;;;;5114687;28;19951;-70
2021/10/11 13:03:57;;;;;;;;;;;13.40;99.90;;;;;;5115034;28;19908;-69
2021/10/11 13:06:27;;;;;;;;;;;13.50;99.90;;;;;;5114673;28;19908;-69
2021/10/11 13:08:58;;;;;;;;;;;13.50;99.90;;;;;;5114633;28;20362;-68
2021/10/11 13:11:28;;;;;;;;;;;13.50;99.90;;;;;;5115163;28;19908;-69
2021/10/11 13:13:55;;;;;;;;;;;13.40;99.90;;;;;;5114864;28;19908;-68
2021/10/11 13:16:23;;;;;;;;;;;13.40;99.90;;;;;;5114522;28;20324;-68
2021/10/11 13:18:49;;;;;;;;;;;13.40;99.90;;;;;;5114913;28;19908;-68
2021/10/11 13:21:16;;;;;;;;;;;13.40;99.90;;;;;;5114639;28;19908;-69
2021/10/11 13:23:43;;;;;;;;;;;13.50;99.90;;;;;;5114585;28;19935;-69
2021/10/11 13:26:10;;;;;;;;;;;13.60;99.90;;;;;;5114834;27;19998;-68
2021/10/11 13:28:38;;;;;;;;;;;13.60;99.90;;;;;;5114422;28;19919;-69
2021/10/11 14:28:33;;;;;;;;;;;14.10;99.90;;;;;;5113733;28;19957;-69
2021/10/11 14:33:51;;;;;;;;;;;14.00;99.90;;;;;;5113566;28;19908;-72
2021/10/11 16:06:10;;;;;;;;;;;14.10;99.90;;;;;;5115987;28;19965;-72
2021/10/11 16:08:37;;;;;;;;;;;14.10;99.90;;;;;;5115902;28;20386;-72
2021/10/11 16:11:04;;;;;;;;;;;14.20;99.90;;;;;;5116094;28;20408;-72
2021/10/11 16:13:31;;;;;;;;;;;14.20;99.90;;;;;;5115845;28;19907;-69
2021/10/11 16:15:58;;;;;;;;;;;14.20;99.90;;;;;;5116070;27;19930;-72
2021/10/11 16:18:30;;;;;;;;;;;14.20;99.90;;;;;;5116005;28;19912;-70
2021/10/11 16:20:58;;;;;;;;;;;14.20;99.90;;;;;;5115933;28;19958;-72
2021/10/11 16:23:25;;;;;;;;;;;14.10;99.90;;;;;;5115942;28;20278;-73
2021/10/11 16:25:51;;;;;;;;;;;14.20;99.90;;;;;;5115861;28;20346;-68
2021/10/11 16:28:18;;;;;;;;;;;14.10;99.90;;;;;;5115798;28;20290;-72
2021/10/11 16:30:44;;;;;;;;;;;14.20;99.90;;;;;;5115763;28;19908;-73
2021/10/11 16:33:11;;;;;;;;;;;14.20;99.90;;;;;;5115489;28;19934;-72
2021/10/11 16:35:40;;;;;;;;;;;14.30;99.90;;;;;;5115163;28;20364;-73
2021/10/11 16:38:07;;;;;;;;;;;14.20;99.90;;;;;;5115612;28;19908;-71
2021/10/11 16:40:36;;;;;;;;;;;14.20;99.90;;;;;;5115427;28;19907;-72
2021/10/11 16:43:02;;;;;;;;;;;14.20;99.90;;;;;;5115233;28;20056;-69
2021/10/11 16:45:29;;;;;;;;;;;14.20;99.90;;;;;;5115526;28;19908;-70
2021/10/11 16:47:56;;;;;;;;;;;14.10;99.90;;;;;;5115220;28;19908;-68
2021/10/11 16:50:23;;;;;;;;;;;14.20;99.90;;;;;;5113832;28;19969;-69
2021/10/11 16:52:49;;;;;;;;;;;14.20;99.90;;;;;;5115273;28;20355;-69